sensor_id;sensor_type;location;lat;lon;timestamp;P1;durP1;ratioP1;P2;durP2;ratioP2
76107;SDS011;64834;52.516;10.528;2023-11-21T00:02:18;15.10;;;6.40;;
76107;SDS011;64834;52.516;10.528;2023-11-21T00:04:43;14.60;;;5.90;;
76107;SDS011;64834;52.516;10.528;2023-11-21T00:07:09;14.23;;;5.70;;
76107;SDS011;64834;52.516;10.528;2023-11-21T00:09:34;17.13;;;6.43;;
76107;SDS011;64834;52.516;10.528;2023-11-21T00:12:01;20.35;;;6.28;;
76107;SDS011;64834;52.516;10.528;2023-11-21T00:14:27;18.85;;;7.10;;
76107;SDS011;64834;52.516;10.528;2023-11-21T00:16:52;18.17;;;6.47;;
76107;SDS011;64834;52.516;10.528;2023-11-21T00:19:18;19.67;;;5.90;;
76107;SDS011;64834;52.516;10.528;2023-11-21T00:21:43;19.40;;;6.80;;
76107;SDS011;64834;52.516;10.528;2023-11-21T00:24:10;21.67;;;6.13;;
76107;SDS011;64834;52.516;10.528;2023-11-21T00:26:38;17.27;;;6.13;;
76107;SDS011;64834;52.516;10.528;2023-11-21T00:29:04;19.30;;;6.40;;
76107;SDS011;64834;52.516;10.528;2023-11-21T00:31:32;20.10;;;6.68;;
76107;SDS011;64834;52.516;10.528;2023-11-21T00:33:58;18.05;;;6.70;;
76107;SDS011;64834;52.516;10.528;2023-11-21T00:36:24;17.33;;;6.47;;
76107;SDS011;64834;52.516;10.528;2023-11-21T00:38:50;22.05;;;7.28;;
76107;SDS011;64834;52.516;10.528;2023-11-21T00:41:16;18.00;;;7.28;;
76107;SDS011;64834;52.516;10.528;2023-11-21T00:43:41;24.00;;;7.20;;
76107;SDS011;64834;52.516;10.528;2023-11-21T00:46:07;16.00;;;7.25;;
76107;SDS011;64834;52.516;10.528;2023-11-21T00:48:32;19.88;;;7.15;;
76107;SDS011;64834;52.516;10.528;2023-11-21T00:50:58;22.98;;;7.07;;
76107;SDS011;64834;52.516;10.528;2023-11-21T00:53:23;22.10;;;7.43;;
76107;SDS011;64834;52.516;10.528;2023-11-21T00:55:49;23.75;;;7.00;;
76107;SDS011;64834;52.516;10.528;2023-11-21T00:58:14;19.05;;;7.43;;
76107;SDS011;64834;52.516;10.528;2023-11-21T01:00:39;15.93;;;6.47;;
76107;SDS011;64834;52.516;10.528;2023-11-21T01:03:05;18.40;;;6.45;;
76107;SDS011;64834;52.516;10.528;2023-11-21T01:05:30;20.23;;;6.70;;
76107;SDS011;64834;52.516;10.528;2023-11-21T01:07:55;20.05;;;6.90;;
76107;SDS011;64834;52.516;10.528;2023-11-21T01:10:21;21.83;;;7.28;;
76107;SDS011;64834;52.516;10.528;2023-11-21T01:12:46;19.20;;;7.22;;
76107;SDS011;64834;52.516;10.528;2023-11-21T01:15:12;16.83;;;6.63;;
76107;SDS011;64834;52.516;10.528;2023-11-21T01:17:37;16.15;;;6.57;;
76107;SDS011;64834;52.516;10.528;2023-11-21T01:20:03;21.48;;;7.18;;
76107;SDS011;64834;52.516;10.528;2023-11-21T01:22:35;19.90;;;6.93;;
76107;SDS011;64834;52.516;10.528;2023-11-21T01:25:01;18.08;;;6.70;;
76107;SDS011;64834;52.516;10.528;2023-11-21T01:27:29;18.23;;;6.95;;
76107;SDS011;64834;52.516;10.528;2023-11-21T01:29:54;19.20;;;7.05;;
76107;SDS011;64834;52.516;10.528;2023-11-21T01:32:20;15.43;;;6.80;;
76107;SDS011;64834;52.516;10.528;2023-11-21T01:34:45;20.27;;;6.90;;
76107;SDS011;64834;52.516;10.528;2023-11-21T01:37:10;18.02;;;7.40;;
76107;SDS011;64834;52.516;10.528;2023-11-21T01:39:37;21.70;;;7.43;;
76107;SDS011;64834;52.516;10.528;2023-11-21T01:42:04;17.92;;;6.35;;
76107;SDS011;64834;52.516;10.528;2023-11-21T01:44:30;16.80;;;6.85;;
76107;SDS011;64834;52.516;10.528;2023-11-21T01:46:55;16.13;;;6.78;;
76107;SDS011;64834;52.516;10.528;2023-11-21T01:49:22;16.50;;;6.78;;
76107;SDS011;64834;52.516;10.528;2023-11-21T01:51:48;22.23;;;6.80;;
76107;SDS011;64834;52.516;10.528;2023-11-21T01:54:16;16.90;;;6.10;;
76107;SDS011;64834;52.516;10.528;2023-11-21T01:56:42;25.83;;;8.20;;
76107;SDS011;64834;52.516;10.528;2023-11-21T01:59:10;13.73;;;6.32;;
76107;SDS011;64834;52.516;10.528;2023-11-21T02:01:39;18.58;;;6.68;;
76107;SDS011;64834;52.516;10.528;2023-11-21T02:04:04;21.55;;;7.05;;
76107;SDS011;64834;52.516;10.528;2023-11-21T02:06:29;13.40;;;6.55;;
76107;SDS011;64834;52.516;10.528;2023-11-21T02:08:56;23.88;;;8.23;;
76107;SDS011;64834;52.516;10.528;2023-11-21T02:11:21;16.08;;;6.32;;
76107;SDS011;64834;52.516;10.528;2023-11-21T02:13:46;16.90;;;6.30;;
76107;SDS011;64834;52.516;10.528;2023-11-21T02:16:12;18.15;;;6.82;;
76107;SDS011;64834;52.516;10.528;2023-11-21T02:18:38;18.05;;;6.90;;
76107;SDS011;64834;52.516;10.528;2023-11-21T02:21:04;15.38;;;6.47;;
76107;SDS011;64834;52.516;10.528;2023-11-21T02:23:30;22.27;;;6.97;;
76107;SDS011;64834;52.516;10.528;2023-11-21T02:25:55;19.63;;;7.38;;
76107;SDS011;64834;52.516;10.528;2023-11-21T02:28:21;18.75;;;7.20;;
76107;SDS011;64834;52.516;10.528;2023-11-21T02:30:50;14.98;;;6.43;;
76107;SDS011;64834;52.516;10.528;2023-11-21T02:33:20;17.48;;;6.93;;
76107;SDS011;64834;52.516;10.528;2023-11-21T02:35:46;15.02;;;6.90;;
76107;SDS011;64834;52.516;10.528;2023-11-21T02:38:11;17.30;;;6.85;;
76107;SDS011;64834;52.516;10.528;2023-11-21T02:40:37;14.73;;;6.30;;
76107;SDS011;64834;52.516;10.528;2023-11-21T02:43:02;19.42;;;6.97;;
76107;SDS011;64834;52.516;10.528;2023-11-21T02:45:30;19.08;;;6.97;;
76107;SDS011;64834;52.516;10.528;2023-11-21T02:47:57;20.25;;;7.43;;
76107;SDS011;64834;52.516;10.528;2023-11-21T02:50:22;16.83;;;6.28;;
76107;SDS011;64834;52.516;10.528;2023-11-21T02:52:48;14.63;;;6.60;;
76107;SDS011;64834;52.516;10.528;2023-11-21T02:55:13;17.70;;;6.50;;
76107;SDS011;64834;52.516;10.528;2023-11-21T02:57:39;13.68;;;6.72;;
76107;SDS011;64834;52.516;10.528;2023-11-21T03:00:04;19.00;;;7.47;;
76107;SDS011;64834;52.516;10.528;2023-11-21T03:02:32;22.73;;;8.05;;
76107;SDS011;64834;52.516;10.528;2023-11-21T03:05:01;20.65;;;7.15;;
76107;SDS011;64834;52.516;10.528;2023-11-21T03:07:27;14.43;;;6.47;;
76107;SDS011;64834;52.516;10.528;2023-11-21T03:09:52;21.20;;;7.28;;
76107;SDS011;64834;52.516;10.528;2023-11-21T03:12:17;17.40;;;7.38;;
76107;SDS011;64834;52.516;10.528;2023-11-21T03:14:44;17.80;;;8.07;;
76107;SDS011;64834;52.516;10.528;2023-11-21T03:17:09;21.23;;;9.05;;
76107;SDS011;64834;52.516;10.528;2023-11-21T03:19:35;18.50;;;6.97;;
76107;SDS011;64834;52.516;10.528;2023-11-21T03:22:00;19.33;;;7.65;;
76107;SDS011;64834;52.516;10.528;2023-11-21T03:24:25;16.77;;;7.68;;
76107;SDS011;64834;52.516;10.528;2023-11-21T03:26:51;17.63;;;7.28;;
76107;SDS011;64834;52.516;10.528;2023-11-21T03:29:17;20.73;;;7.82;;
76107;SDS011;64834;52.516;10.528;2023-11-21T03:31:42;17.48;;;7.30;;
76107;SDS011;64834;52.516;10.528;2023-11-21T03:34:10;18.63;;;7.47;;
76107;SDS011;64834;52.516;10.528;2023-11-21T03:36:39;20.70;;;9.20;;
76107;SDS011;64834;52.516;10.528;2023-11-21T03:39:05;18.50;;;8.02;;
76107;SDS011;64834;52.516;10.528;2023-11-21T03:41:30;18.58;;;7.85;;
76107;SDS011;64834;52.516;10.528;2023-11-21T03:43:55;18.77;;;7.72;;
76107;SDS011;64834;52.516;10.528;2023-11-21T03:46:21;17.80;;;8.05;;
76107;SDS011;64834;52.516;10.528;2023-11-21T03:48:46;22.20;;;9.25;;
76107;SDS011;64834;52.516;10.528;2023-11-21T03:51:11;23.33;;;7.60;;
76107;SDS011;64834;52.516;10.528;2023-11-21T03:53:37;23.08;;;8.93;;
76107;SDS011;64834;52.516;10.528;2023-11-21T03:56:02;19.20;;;8.40;;
76107;SDS011;64834;52.516;10.528;2023-11-21T03:58:28;21.98;;;8.90;;
76107;SDS011;64834;52.516;10.528;2023-11-21T04:00:54;18.88;;;8.32;;
76107;SDS011;64834;52.516;10.528;2023-11-21T04:03:19;21.20;;;8.60;;
76107;SDS011;64834;52.516;10.528;2023-11-21T04:05:45;19.60;;;8.48;;
76107;SDS011;64834;52.516;10.528;2023-11-21T04:08:10;18.35;;;8.23;;
76107;SDS011;64834;52.516;10.528;2023-11-21T04:10:36;18.27;;;8.35;;
76107;SDS011;64834;52.516;10.528;2023-11-21T04:13:01;18.27;;;8.27;;
76107;SDS011;64834;52.516;10.528;2023-11-21T04:15:26;18.00;;;8.40;;
76107;SDS011;64834;52.516;10.528;2023-11-21T04:17:52;15.88;;;7.55;;
76107;SDS011;64834;52.516;10.528;2023-11-21T04:20:17;15.00;;;7.32;;
76107;SDS011;64834;52.516;10.528;2023-11-21T04:22:43;15.65;;;7.28;;
76107;SDS011;64834;52.516;10.528;2023-11-21T04:25:09;16.40;;;7.90;;
76107;SDS011;64834;52.516;10.528;2023-11-21T04:27:36;13.15;;;6.60;;
76107;SDS011;64834;52.516;10.528;2023-11-21T04:30:02;20.80;;;8.00;;
76107;SDS011;64834;52.516;10.528;2023-11-21T04:32:28;12.18;;;4.63;;
76107;SDS011;64834;52.516;10.528;2023-11-21T04:34:53;6.82;;;2.60;;
76107;SDS011;64834;52.516;10.528;2023-11-21T04:37:19;5.75;;;2.47;;
76107;SDS011;64834;52.516;10.528;2023-11-21T04:39:44;4.18;;;1.50;;
76107;SDS011;64834;52.516;10.528;2023-11-21T04:42:09;3.47;;;1.45;;
76107;SDS011;64834;52.516;10.528;2023-11-21T04:44:35;2.88;;;1.27;;
76107;SDS011;64834;52.516;10.528;2023-11-21T04:47:00;2.47;;;1.10;;
76107;SDS011;64834;52.516;10.528;2023-11-21T04:49:25;3.15;;;1.58;;
76107;SDS011;64834;52.516;10.528;2023-11-21T04:51:51;3.97;;;1.30;;
76107;SDS011;64834;52.516;10.528;2023-11-21T04:54:16;3.60;;;1.42;;
76107;SDS011;64834;52.516;10.528;2023-11-21T04:56:41;4.40;;;1.60;;
76107;SDS011;64834;52.516;10.528;2023-11-21T04:59:07;3.50;;;1.52;;
76107;SDS011;64834;52.516;10.528;2023-11-21T05:01:33;4.03;;;1.63;;
76107;SDS011;64834;52.516;10.528;2023-11-21T05:03:58;3.38;;;1.52;;
76107;SDS011;64834;52.516;10.528;2023-11-21T05:06:23;4.72;;;1.98;;
76107;SDS011;64834;52.516;10.528;2023-11-21T05:08:49;3.60;;;2.05;;
76107;SDS011;64834;52.516;10.528;2023-11-21T05:11:23;5.13;;;2.10;;
76107;SDS011;64834;52.516;10.528;2023-11-21T05:13:51;6.07;;;2.60;;
76107;SDS011;64834;52.516;10.528;2023-11-21T05:16:17;5.72;;;2.70;;
76107;SDS011;64834;52.516;10.528;2023-11-21T05:18:44;8.57;;;3.88;;
76107;SDS011;64834;52.516;10.528;2023-11-21T05:21:09;9.68;;;4.50;;
76107;SDS011;64834;52.516;10.528;2023-11-21T05:23:35;8.52;;;4.15;;
76107;SDS011;64834;52.516;10.528;2023-11-21T05:26:00;12.77;;;5.70;;
76107;SDS011;64834;52.516;10.528;2023-11-21T05:28:25;12.70;;;6.10;;
76107;SDS011;64834;52.516;10.528;2023-11-21T05:30:51;13.30;;;7.07;;
76107;SDS011;64834;52.516;10.528;2023-11-21T05:33:16;17.48;;;7.32;;
76107;SDS011;64834;52.516;10.528;2023-11-21T05:35:41;22.77;;;8.52;;
76107;SDS011;64834;52.516;10.528;2023-11-21T05:38:06;18.13;;;7.75;;
76107;SDS011;64834;52.516;10.528;2023-11-21T05:40:32;21.33;;;8.55;;
76107;SDS011;64834;52.516;10.528;2023-11-21T05:42:57;23.13;;;8.10;;
76107;SDS011;64834;52.516;10.528;2023-11-21T05:45:23;24.05;;;8.95;;
76107;SDS011;64834;52.516;10.528;2023-11-21T05:47:48;19.60;;;9.27;;
76107;SDS011;64834;52.516;10.528;2023-11-21T05:50:14;21.83;;;9.32;;
76107;SDS011;64834;52.516;10.528;2023-11-21T05:52:41;21.50;;;8.75;;
76107;SDS011;64834;52.516;10.528;2023-11-21T05:55:08;21.40;;;9.15;;
76107;SDS011;64834;52.516;10.528;2023-11-21T05:57:34;19.20;;;9.35;;
76107;SDS011;64834;52.516;10.528;2023-11-21T06:00:07;18.30;;;8.15;;
76107;SDS011;64834;52.516;10.528;2023-11-21T06:02:38;17.83;;;8.55;;
76107;SDS011;64834;52.516;10.528;2023-11-21T06:05:04;20.40;;;8.85;;
76107;SDS011;64834;52.516;10.528;2023-11-21T06:07:31;19.92;;;8.35;;
76107;SDS011;64834;52.516;10.528;2023-11-21T06:09:56;18.65;;;7.35;;
76107;SDS011;64834;52.516;10.528;2023-11-21T06:12:22;18.55;;;8.35;;
76107;SDS011;64834;52.516;10.528;2023-11-21T06:14:47;17.88;;;7.53;;
76107;SDS011;64834;52.516;10.528;2023-11-21T06:17:13;20.45;;;9.52;;
76107;SDS011;64834;52.516;10.528;2023-11-21T06:19:38;20.60;;;9.82;;
76107;SDS011;64834;52.516;10.528;2023-11-21T06:22:03;18.42;;;8.73;;
76107;SDS011;64834;52.516;10.528;2023-11-21T06:24:29;16.77;;;7.85;;
76107;SDS011;64834;52.516;10.528;2023-11-21T06:26:54;15.75;;;8.93;;
76107;SDS011;64834;52.516;10.528;2023-11-21T06:29:19;16.80;;;7.97;;
76107;SDS011;64834;52.516;10.528;2023-11-21T06:31:45;19.73;;;8.52;;
76107;SDS011;64834;52.516;10.528;2023-11-21T06:34:11;18.35;;;8.40;;
76107;SDS011;64834;52.516;10.528;2023-11-21T06:36:37;16.15;;;7.22;;
76107;SDS011;64834;52.516;10.528;2023-11-21T06:39:02;17.42;;;8.32;;
76107;SDS011;64834;52.516;10.528;2023-11-21T06:41:31;16.92;;;7.97;;
76107;SDS011;64834;52.516;10.528;2023-11-21T06:43:57;21.20;;;8.40;;
76107;SDS011;64834;52.516;10.528;2023-11-21T06:46:24;22.63;;;8.85;;
76107;SDS011;64834;52.516;10.528;2023-11-21T06:48:49;19.35;;;8.25;;
76107;SDS011;64834;52.516;10.528;2023-11-21T06:51:14;18.55;;;8.93;;
76107;SDS011;64834;52.516;10.528;2023-11-21T06:53:39;18.02;;;8.32;;
76107;SDS011;64834;52.516;10.528;2023-11-21T06:56:14;17.33;;;8.25;;
76107;SDS011;64834;52.516;10.528;2023-11-21T06:58:40;16.80;;;7.60;;
76107;SDS011;64834;52.516;10.528;2023-11-21T07:01:06;15.27;;;8.23;;
76107;SDS011;64834;52.516;10.528;2023-11-21T07:03:31;18.15;;;8.55;;
76107;SDS011;64834;52.516;10.528;2023-11-21T07:05:56;17.48;;;8.30;;
76107;SDS011;64834;52.516;10.528;2023-11-21T07:08:22;15.73;;;8.02;;
76107;SDS011;64834;52.516;10.528;2023-11-21T07:10:47;15.98;;;7.72;;
76107;SDS011;64834;52.516;10.528;2023-11-21T07:13:12;14.32;;;7.80;;
76107;SDS011;64834;52.516;10.528;2023-11-21T07:15:38;13.45;;;7.20;;
76107;SDS011;64834;52.516;10.528;2023-11-21T07:18:03;15.00;;;7.53;;
76107;SDS011;64834;52.516;10.528;2023-11-21T07:20:28;14.77;;;7.43;;
76107;SDS011;64834;52.516;10.528;2023-11-21T07:22:55;16.63;;;7.10;;
76107;SDS011;64834;52.516;10.528;2023-11-21T07:25:21;15.38;;;7.78;;
76107;SDS011;64834;52.516;10.528;2023-11-21T07:27:47;15.25;;;7.72;;
76107;SDS011;64834;52.516;10.528;2023-11-21T07:30:12;15.30;;;7.10;;
76107;SDS011;64834;52.516;10.528;2023-11-21T07:32:38;13.85;;;6.78;;
76107;SDS011;64834;52.516;10.528;2023-11-21T07:35:04;12.40;;;6.53;;
76107;SDS011;64834;52.516;10.528;2023-11-21T07:37:30;12.27;;;6.10;;
76107;SDS011;64834;52.516;10.528;2023-11-21T07:39:55;11.98;;;6.45;;
76107;SDS011;64834;52.516;10.528;2023-11-21T07:42:22;11.23;;;6.35;;
76107;SDS011;64834;52.516;10.528;2023-11-21T07:44:49;11.50;;;5.63;;
76107;SDS011;64834;52.516;10.528;2023-11-21T07:47:15;10.00;;;5.20;;
76107;SDS011;64834;52.516;10.528;2023-11-21T07:49:40;9.80;;;5.32;;
76107;SDS011;64834;52.516;10.528;2023-11-21T07:54:33;9.63;;;4.43;;
76107;SDS011;64834;52.516;10.528;2023-11-21T07:57:00;11.57;;;6.80;;
76107;SDS011;64834;52.516;10.528;2023-11-21T07:59:26;11.25;;;6.43;;
76107;SDS011;64834;52.516;10.528;2023-11-21T08:01:51;13.02;;;6.47;;
76107;SDS011;64834;52.516;10.528;2023-11-21T08:04:16;11.90;;;6.35;;
76107;SDS011;64834;52.516;10.528;2023-11-21T08:06:42;11.60;;;6.07;;
76107;SDS011;64834;52.516;10.528;2023-11-21T08:09:07;14.10;;;7.43;;
76107;SDS011;64834;52.516;10.528;2023-11-21T08:11:33;11.80;;;6.28;;
76107;SDS011;64834;52.516;10.528;2023-11-21T08:13:58;11.98;;;6.65;;
76107;SDS011;64834;52.516;10.528;2023-11-21T08:16:24;11.32;;;6.35;;
76107;SDS011;64834;52.516;10.528;2023-11-21T08:18:50;14.10;;;6.20;;
76107;SDS011;64834;52.516;10.528;2023-11-21T08:21:15;9.77;;;5.38;;
76107;SDS011;64834;52.516;10.528;2023-11-21T08:23:41;11.02;;;6.00;;
76107;SDS011;64834;52.516;10.528;2023-11-21T08:26:06;10.73;;;5.70;;
76107;SDS011;64834;52.516;10.528;2023-11-21T08:28:32;9.80;;;5.25;;
76107;SDS011;64834;52.516;10.528;2023-11-21T08:30:57;11.05;;;5.50;;
76107;SDS011;64834;52.516;10.528;2023-11-21T08:33:22;10.85;;;6.10;;
76107;SDS011;64834;52.516;10.528;2023-11-21T08:35:48;10.35;;;5.55;;
76107;SDS011;64834;52.516;10.528;2023-11-21T08:38:14;10.77;;;5.35;;
76107;SDS011;64834;52.516;10.528;2023-11-21T08:40:39;10.57;;;5.78;;
76107;SDS011;64834;52.516;10.528;2023-11-21T08:43:05;10.15;;;5.22;;
76107;SDS011;64834;52.516;10.528;2023-11-21T08:45:30;8.85;;;5.18;;
76107;SDS011;64834;52.516;10.528;2023-11-21T08:47:57;9.65;;;5.45;;
76107;SDS011;64834;52.516;10.528;2023-11-21T08:50:22;11.57;;;5.50;;
76107;SDS011;64834;52.516;10.528;2023-11-21T08:52:48;10.20;;;5.50;;
76107;SDS011;64834;52.516;10.528;2023-11-21T08:55:14;9.38;;;5.55;;
76107;SDS011;64834;52.516;10.528;2023-11-21T08:57:39;10.38;;;5.25;;
76107;SDS011;64834;52.516;10.528;2023-11-21T09:00:06;8.43;;;5.35;;
76107;SDS011;64834;52.516;10.528;2023-11-21T09:02:36;9.65;;;5.18;;
76107;SDS011;64834;52.516;10.528;2023-11-21T09:05:03;9.00;;;5.30;;
76107;SDS011;64834;52.516;10.528;2023-11-21T09:07:29;9.10;;;5.13;;
76107;SDS011;64834;52.516;10.528;2023-11-21T09:09:55;7.72;;;4.47;;
76107;SDS011;64834;52.516;10.528;2023-11-21T09:12:20;7.72;;;4.18;;
76107;SDS011;64834;52.516;10.528;2023-11-21T09:14:46;9.23;;;5.20;;
76107;SDS011;64834;52.516;10.528;2023-11-21T09:17:11;11.27;;;5.60;;
76107;SDS011;64834;52.516;10.528;2023-11-21T09:19:40;10.00;;;4.05;;
76107;SDS011;64834;52.516;10.528;2023-11-21T09:22:06;7.65;;;4.63;;
76107;SDS011;64834;52.516;10.528;2023-11-21T09:24:32;8.10;;;4.43;;
76107;SDS011;64834;52.516;10.528;2023-11-21T09:27:00;8.88;;;5.40;;
76107;SDS011;64834;52.516;10.528;2023-11-21T09:29:28;9.05;;;5.32;;
76107;SDS011;64834;52.516;10.528;2023-11-21T09:31:54;8.98;;;4.43;;
76107;SDS011;64834;52.516;10.528;2023-11-21T09:34:20;8.68;;;5.45;;
76107;SDS011;64834;52.516;10.528;2023-11-21T09:36:46;8.82;;;5.13;;
76107;SDS011;64834;52.516;10.528;2023-11-21T09:39:12;8.60;;;5.07;;
76107;SDS011;64834;52.516;10.528;2023-11-21T09:41:43;9.23;;;5.05;;
76107;SDS011;64834;52.516;10.528;2023-11-21T09:44:13;8.73;;;5.45;;
76107;SDS011;64834;52.516;10.528;2023-11-21T09:46:42;8.25;;;5.30;;
76107;SDS011;64834;52.516;10.528;2023-11-21T09:49:08;7.90;;;4.68;;
76107;SDS011;64834;52.516;10.528;2023-11-21T09:51:39;8.70;;;5.32;;
76107;SDS011;64834;52.516;10.528;2023-11-21T09:54:07;10.07;;;5.45;;
76107;SDS011;64834;52.516;10.528;2023-11-21T09:56:34;9.68;;;5.30;;
76107;SDS011;64834;52.516;10.528;2023-11-21T09:59:00;9.02;;;4.22;;
76107;SDS011;64834;52.516;10.528;2023-11-21T10:01:32;9.70;;;5.00;;
76107;SDS011;64834;52.516;10.528;2023-11-21T10:04:00;7.88;;;4.85;;
76107;SDS011;64834;52.516;10.528;2023-11-21T10:06:26;9.70;;;4.88;;
76107;SDS011;64834;52.516;10.528;2023-11-21T10:08:52;8.48;;;4.47;;
76107;SDS011;64834;52.516;10.528;2023-11-21T10:11:22;8.98;;;5.18;;
76107;SDS011;64834;52.516;10.528;2023-11-21T10:13:50;8.80;;;5.22;;
76107;SDS011;64834;52.516;10.528;2023-11-21T10:16:19;8.25;;;5.35;;
76107;SDS011;64834;52.516;10.528;2023-11-21T10:18:46;8.57;;;5.47;;
76107;SDS011;64834;52.516;10.528;2023-11-21T10:21:14;6.82;;;3.70;;
76107;SDS011;64834;52.516;10.528;2023-11-21T10:23:40;8.55;;;5.35;;
76107;SDS011;64834;52.516;10.528;2023-11-21T10:26:06;10.90;;;4.78;;
76107;SDS011;64834;52.516;10.528;2023-11-21T10:28:41;9.82;;;4.63;;
76107;SDS011;64834;52.516;10.528;2023-11-21T10:31:07;7.55;;;4.65;;
76107;SDS011;64834;52.516;10.528;2023-11-21T10:33:32;6.55;;;4.43;;
76107;SDS011;64834;52.516;10.528;2023-11-21T10:35:57;8.93;;;4.93;;
76107;SDS011;64834;52.516;10.528;2023-11-21T10:38:24;8.38;;;4.90;;
76107;SDS011;64834;52.516;10.528;2023-11-21T10:40:52;7.93;;;4.40;;
76107;SDS011;64834;52.516;10.528;2023-11-21T10:43:17;7.75;;;4.25;;
76107;SDS011;64834;52.516;10.528;2023-11-21T10:45:43;6.72;;;4.35;;
76107;SDS011;64834;52.516;10.528;2023-11-21T10:48:09;8.65;;;4.45;;
76107;SDS011;64834;52.516;10.528;2023-11-21T10:50:38;7.18;;;4.63;;
76107;SDS011;64834;52.516;10.528;2023-11-21T10:53:04;6.90;;;4.60;;
76107;SDS011;64834;52.516;10.528;2023-11-21T10:55:30;8.43;;;4.28;;
76107;SDS011;64834;52.516;10.528;2023-11-21T10:57:58;6.97;;;4.22;;
76107;SDS011;64834;52.516;10.528;2023-11-21T11:00:24;6.63;;;4.15;;
76107;SDS011;64834;52.516;10.528;2023-11-21T11:02:52;9.00;;;4.68;;
76107;SDS011;64834;52.516;10.528;2023-11-21T11:08:08;7.05;;;3.85;;
76107;SDS011;64834;52.516;10.528;2023-11-21T11:10:37;6.95;;;4.00;;
76107;SDS011;64834;52.516;10.528;2023-11-21T11:13:03;12.20;;;5.72;;
76107;SDS011;64834;52.516;10.528;2023-11-21T11:15:31;13.43;;;6.18;;
76107;SDS011;64834;52.516;10.528;2023-11-21T11:17:57;7.07;;;3.97;;
76107;SDS011;64834;52.516;10.528;2023-11-21T11:20:23;5.75;;;3.67;;
76107;SDS011;64834;52.516;10.528;2023-11-21T11:28:21;6.88;;;3.95;;
76107;SDS011;64834;52.516;10.528;2023-11-21T11:31:00;5.45;;;3.03;;
76107;SDS011;64834;52.516;10.528;2023-11-21T11:33:57;5.13;;;2.80;;
76107;SDS011;64834;52.516;10.528;2023-11-21T11:36:37;5.80;;;3.10;;
76107;SDS011;64834;52.516;10.528;2023-11-21T11:42:14;4.03;;;2.83;;
76107;SDS011;64834;52.516;10.528;2023-11-21T11:50:00;4.95;;;2.55;;
76107;SDS011;64834;52.516;10.528;2023-11-21T11:52:45;4.40;;;2.60;;
76107;SDS011;64834;52.516;10.528;2023-11-21T11:55:12;5.53;;;2.92;;
76107;SDS011;64834;52.516;10.528;2023-11-21T11:57:39;6.68;;;3.15;;
76107;SDS011;64834;52.516;10.528;2023-11-21T12:02:45;9.07;;;5.50;;
76107;SDS011;64834;52.516;10.528;2023-11-21T12:05:15;4.72;;;3.10;;
76107;SDS011;64834;52.516;10.528;2023-11-21T12:07:43;5.15;;;3.25;;
76107;SDS011;64834;52.516;10.528;2023-11-21T12:10:17;6.50;;;4.13;;
76107;SDS011;64834;52.516;10.528;2023-11-21T12:13:26;6.07;;;3.83;;
76107;SDS011;64834;52.516;10.528;2023-11-21T12:15:33;6.18;;;2.65;;
76107;SDS011;64834;52.516;10.528;2023-11-21T12:18:00;4.47;;;3.28;;
76107;SDS011;64834;52.516;10.528;2023-11-21T12:20:26;4.93;;;3.00;;
76107;SDS011;64834;52.516;10.528;2023-11-21T12:22:53;5.45;;;3.40;;
76107;SDS011;64834;52.516;10.528;2023-11-21T12:25:27;4.88;;;2.88;;
76107;SDS011;64834;52.516;10.528;2023-11-21T12:27:55;5.35;;;2.92;;
76107;SDS011;64834;52.516;10.528;2023-11-21T12:30:22;5.43;;;3.45;;
76107;SDS011;64834;52.516;10.528;2023-11-21T12:32:52;4.65;;;3.00;;
76107;SDS011;64834;52.516;10.528;2023-11-21T12:35:18;5.25;;;3.20;;
76107;SDS011;64834;52.516;10.528;2023-11-21T12:40:12;5.32;;;2.90;;
76107;SDS011;64834;52.516;10.528;2023-11-21T12:42:47;5.72;;;2.97;;
76107;SDS011;64834;52.516;10.528;2023-11-21T12:47:45;6.50;;;3.25;;
76107;SDS011;64834;52.516;10.528;2023-11-21T12:50:20;5.85;;;3.85;;
76107;SDS011;64834;52.516;10.528;2023-11-21T12:52:49;5.40;;;2.90;;
76107;SDS011;64834;52.516;10.528;2023-11-21T12:55:20;5.43;;;3.33;;
76107;SDS011;64834;52.516;10.528;2023-11-21T12:57:50;8.30;;;3.38;;
76107;SDS011;64834;52.516;10.528;2023-11-21T13:00:20;4.35;;;2.95;;
76107;SDS011;64834;52.516;10.528;2023-11-21T13:02:53;5.03;;;2.45;;
76107;SDS011;64834;52.516;10.528;2023-11-21T13:05:35;6.30;;;2.72;;
76107;SDS011;64834;52.516;10.528;2023-11-21T13:08:09;5.97;;;2.97;;
76107;SDS011;64834;52.516;10.528;2023-11-21T13:10:37;3.90;;;2.67;;
76107;SDS011;64834;52.516;10.528;2023-11-21T13:13:05;4.93;;;2.63;;
76107;SDS011;64834;52.516;10.528;2023-11-21T13:15:33;6.70;;;2.63;;
76107;SDS011;64834;52.516;10.528;2023-11-21T13:18:01;5.93;;;3.28;;
76107;SDS011;64834;52.516;10.528;2023-11-21T13:20:27;16.13;;;5.68;;
76107;SDS011;64834;52.516;10.528;2023-11-21T13:22:54;19.33;;;7.13;;
76107;SDS011;64834;52.516;10.528;2023-11-21T13:25:27;7.47;;;4.43;;
76107;SDS011;64834;52.516;10.528;2023-11-21T13:27:56;4.47;;;3.30;;
76107;SDS011;64834;52.516;10.528;2023-11-21T13:30:24;4.97;;;2.53;;
76107;SDS011;64834;52.516;10.528;2023-11-21T13:32:58;4.72;;;3.10;;
76107;SDS011;64834;52.516;10.528;2023-11-21T13:35:27;4.03;;;2.22;;
76107;SDS011;64834;52.516;10.528;2023-11-21T13:37:57;4.45;;;2.67;;
76107;SDS011;64834;52.516;10.528;2023-11-21T13:40:29;4.32;;;2.67;;
76107;SDS011;64834;52.516;10.528;2023-11-21T13:42:54;5.40;;;2.90;;
76107;SDS011;64834;52.516;10.528;2023-11-21T13:45:20;4.40;;;2.78;;
76107;SDS011;64834;52.516;10.528;2023-11-21T13:50:13;4.10;;;2.72;;
76107;SDS011;64834;52.516;10.528;2023-11-21T13:52:42;4.72;;;2.33;;
76107;SDS011;64834;52.516;10.528;2023-11-21T13:55:07;3.72;;;2.35;;
76107;SDS011;64834;52.516;10.528;2023-11-21T13:57:39;5.18;;;3.33;;
76107;SDS011;64834;52.516;10.528;2023-11-21T14:00:04;4.72;;;2.20;;
76107;SDS011;64834;52.516;10.528;2023-11-21T14:02:35;4.05;;;2.42;;
76107;SDS011;64834;52.516;10.528;2023-11-21T14:05:07;5.82;;;2.55;;
76107;SDS011;64834;52.516;10.528;2023-11-21T14:07:34;4.55;;;3.03;;
76107;SDS011;64834;52.516;10.528;2023-11-21T14:12:28;4.70;;;2.78;;
76107;SDS011;64834;52.516;10.528;2023-11-21T14:14:58;6.32;;;2.63;;
76107;SDS011;64834;52.516;10.528;2023-11-21T14:17:24;4.72;;;2.78;;
76107;SDS011;64834;52.516;10.528;2023-11-21T14:19:49;6.68;;;2.80;;
76107;SDS011;64834;52.516;10.528;2023-11-21T14:22:15;5.13;;;2.75;;
76107;SDS011;64834;52.516;10.528;2023-11-21T14:24:42;4.13;;;3.15;;
76107;SDS011;64834;52.516;10.528;2023-11-21T14:27:11;5.93;;;3.15;;
76107;SDS011;64834;52.516;10.528;2023-11-21T14:29:36;4.70;;;3.10;;
76107;SDS011;64834;52.516;10.528;2023-11-21T14:32:04;6.53;;;3.35;;
76107;SDS011;64834;52.516;10.528;2023-11-21T14:34:30;6.50;;;3.10;;
76107;SDS011;64834;52.516;10.528;2023-11-21T14:36:56;5.55;;;3.10;;
76107;SDS011;64834;52.516;10.528;2023-11-21T14:39:21;5.80;;;3.28;;
76107;SDS011;64834;52.516;10.528;2023-11-21T14:41:53;5.97;;;4.30;;
76107;SDS011;64834;52.516;10.528;2023-11-21T14:44:24;7.35;;;5.45;;
76107;SDS011;64834;52.516;10.528;2023-11-21T14:46:52;8.77;;;5.47;;
76107;SDS011;64834;52.516;10.528;2023-11-21T14:49:20;9.30;;;6.00;;
76107;SDS011;64834;52.516;10.528;2023-11-21T14:51:49;6.75;;;4.50;;
76107;SDS011;64834;52.516;10.528;2023-11-21T14:54:28;4.53;;;3.13;;
76107;SDS011;64834;52.516;10.528;2023-11-21T14:57:11;6.15;;;3.38;;